sensor_id;sensor_type;location;lat;lon;timestamp;temperature;humidity
44817;DHT22;30529;53.570;9.964;2022-08-11T00:01:23;19.30;99.90
44817;DHT22;30529;53.570;9.964;2022-08-11T00:03:54;19.40;99.90
44817;DHT22;30529;53.570;9.964;2022-08-11T00:06:31;19.30;99.90
44817;DHT22;30529;53.570;9.964;2022-08-11T00:09:00;19.30;99.90
44817;DHT22;30529;53.570;9.964;2022-08-11T00:11:33;19.30;99.90
44817;DHT22;30529;53.570;9.964;2022-08-11T00:13:59;19.40;99.90
44817;DHT22;30529;53.570;9.964;2022-08-11T00:16:27;19.30;99.90
44817;DHT22;30529;53.570;9.964;2022-08-11T00:18:55;19.30;99.90
44817;DHT22;30529;53.570;9.964;2022-08-11T00:21:23;19.30;99.90
44817;DHT22;30529;53.570;9.964;2022-08-11T00:23:57;19.30;99.90
44817;DHT22;30529;53.570;9.964;2022-08-11T00:26:25;19.30;99.90
44817;DHT22;30529;53.570;9.964;2022-08-11T00:28:53;19.30;99.90
44817;DHT22;30529;53.570;9.964;2022-08-11T00:31:29;19.30;99.90
44817;DHT22;30529;53.570;9.964;2022-08-11T00:33:58;19.20;99.90
44817;DHT22;30529;53.570;9.964;2022-08-11T00:36:28;19.20;99.90
44817;DHT22;30529;53.570;9.964;2022-08-11T00:39:05;19.20;99.90
44817;DHT22;30529;53.570;9.964;2022-08-11T00:41:38;19.20;99.90
44817;DHT22;30529;53.570;9.964;2022-08-11T00:49:48;19.10;99.90
44817;DHT22;30529;53.570;9.964;2022-08-11T01:00:15;19.00;99.90
44817;DHT22;30529;53.570;9.964;2022-08-11T01:39:36;18.70;99.90
44817;DHT22;30529;53.570;9.964;2022-08-11T01:42:47;18.70;99.90
44817;DHT22;30529;53.570;9.964;2022-08-11T01:48:18;18.60;99.90
44817;DHT22;30529;53.570;9.964;2022-08-11T01:59:10;18.60;99.90
44817;DHT22;30529;53.570;9.964;2022-08-11T02:02:13;18.60;99.90
44817;DHT22;30529;53.570;9.964;2022-08-11T02:05:15;18.60;99.90
44817;DHT22;30529;53.570;9.964;2022-08-11T02:07:55;18.60;99.90
44817;DHT22;30529;53.570;9.964;2022-08-11T02:10:46;18.60;99.90
44817;DHT22;30529;53.570;9.964;2022-08-11T02:22:05;18.50;99.90
44817;DHT22;30529;53.570;9.964;2022-08-11T02:25:04;18.50;99.90
44817;DHT22;30529;53.570;9.964;2022-08-11T02:27:58;18.50;99.90
44817;DHT22;30529;53.570;9.964;2022-08-11T02:30:32;18.50;99.90
44817;DHT22;30529;53.570;9.964;2022-08-11T02:33:23;18.50;99.90
44817;DHT22;30529;53.570;9.964;2022-08-11T02:36:02;18.40;99.90
44817;DHT22;30529;53.570;9.964;2022-08-11T02:38:50;18.50;99.90
44817;DHT22;30529;53.570;9.964;2022-08-11T02:42:48;18.40;99.90
44817;DHT22;30529;53.570;9.964;2022-08-11T02:45:36;18.40;99.90
44817;DHT22;30529;53.570;9.964;2022-08-11T02:57:14;18.30;99.90
44817;DHT22;30529;53.570;9.964;2022-08-11T02:59:54;18.20;99.90
44817;DHT22;30529;53.570;9.964;2022-08-11T03:14:09;18.20;99.90
44817;DHT22;30529;53.570;9.964;2022-08-11T03:17:03;18.20;99.90
44817;DHT22;30529;53.570;9.964;2022-08-11T03:22:23;18.20;99.90
44817;DHT22;30529;53.570;9.964;2022-08-11T03:25:05;18.10;99.90
44817;DHT22;30529;53.570;9.964;2022-08-11T03:30:34;18.00;99.90
44817;DHT22;30529;53.570;9.964;2022-08-11T03:33:24;18.00;99.90
44817;DHT22;30529;53.570;9.964;2022-08-11T03:48:07;17.90;99.90
44817;DHT22;30529;53.570;9.964;2022-08-11T03:50:54;17.90;99.90
44817;DHT22;30529;53.570;9.964;2022-08-11T04:00:04;17.90;99.90
44817;DHT22;30529;53.570;9.964;2022-08-11T04:05:31;17.80;99.90
44817;DHT22;30529;53.570;9.964;2022-08-11T04:08:09;17.80;99.90
44817;DHT22;30529;53.570;9.964;2022-08-11T04:13:27;17.90;99.90
44817;DHT22;30529;53.570;9.964;2022-08-11T04:24:56;18.00;99.90
44817;DHT22;30529;53.570;9.964;2022-08-11T04:27:45;17.90;99.90
44817;DHT22;30529;53.570;9.964;2022-08-11T04:33:33;18.00;99.90
44817;DHT22;30529;53.570;9.964;2022-08-11T04:57:18;19.30;99.90
44817;DHT22;30529;53.570;9.964;2022-08-11T05:00:13;19.50;99.90
44817;DHT22;30529;53.570;9.964;2022-08-11T05:11:49;20.00;99.90
44817;DHT22;30529;53.570;9.964;2022-08-11T05:14:47;20.20;99.90
44817;DHT22;30529;53.570;9.964;2022-08-11T05:20:46;20.60;99.90
44817;DHT22;30529;53.570;9.964;2022-08-11T05:23:45;20.70;99.90
44817;DHT22;30529;53.570;9.964;2022-08-11T05:26:43;20.80;99.90
44817;DHT22;30529;53.570;9.964;2022-08-11T05:32:24;21.00;99.90
44817;DHT22;30529;53.570;9.964;2022-08-11T05:35:15;21.10;99.90
44817;DHT22;30529;53.570;9.964;2022-08-11T05:37:43;21.30;99.90
44817;DHT22;30529;53.570;9.964;2022-08-11T05:40:30;21.40;99.90
44817;DHT22;30529;53.570;9.964;2022-08-11T05:43:15;21.60;99.90
44817;DHT22;30529;53.570;9.964;2022-08-11T05:46:02;21.90;99.90
44817;DHT22;30529;53.570;9.964;2022-08-11T05:48:48;22.40;99.90
44817;DHT22;30529;53.570;9.964;2022-08-11T05:51:40;22.50;99.90
44817;DHT22;30529;53.570;9.964;2022-08-11T05:54:26;22.70;99.90
44817;DHT22;30529;53.570;9.964;2022-08-11T05:57:21;22.80;99.90
44817;DHT22;30529;53.570;9.964;2022-08-11T05:59:49;23.00;99.90
44817;DHT22;30529;53.570;9.964;2022-08-11T06:02:15;23.20;99.90
44817;DHT22;30529;53.570;9.964;2022-08-11T06:04:42;23.20;99.90
44817;DHT22;30529;53.570;9.964;2022-08-11T06:07:10;23.20;99.90
44817;DHT22;30529;53.570;9.964;2022-08-11T06:09:48;22.90;99.90
44817;DHT22;30529;53.570;9.964;2022-08-11T06:12:19;22.70;99.90
44817;DHT22;30529;53.570;9.964;2022-08-11T06:14:50;22.50;99.90
44817;DHT22;30529;53.570;9.964;2022-08-11T06:17:24;22.40;99.90
44817;DHT22;30529;53.570;9.964;2022-08-11T06:20:06;22.20;99.90
44817;DHT22;30529;53.570;9.964;2022-08-11T06:22:44;22.00;99.90
44817;DHT22;30529;53.570;9.964;2022-08-11T06:25:11;21.80;99.90
44817;DHT22;30529;53.570;9.964;2022-08-11T06:27:41;21.70;99.90
44817;DHT22;30529;53.570;9.964;2022-08-11T06:30:09;21.60;99.90
44817;DHT22;30529;53.570;9.964;2022-08-11T06:32:45;21.50;99.90
44817;DHT22;30529;53.570;9.964;2022-08-11T06:38:08;21.40;99.90
44817;DHT22;30529;53.570;9.964;2022-08-11T06:40:50;21.30;99.90
44817;DHT22;30529;53.570;9.964;2022-08-11T06:43:50;21.20;99.90
44817;DHT22;30529;53.570;9.964;2022-08-11T06:46:33;21.20;99.90
44817;DHT22;30529;53.570;9.964;2022-08-11T06:49:06;21.20;99.90
44817;DHT22;30529;53.570;9.964;2022-08-11T06:51:54;21.10;99.90
44817;DHT22;30529;53.570;9.964;2022-08-11T06:54:23;21.10;99.90
44817;DHT22;30529;53.570;9.964;2022-08-11T06:56:50;21.10;99.90
44817;DHT22;30529;53.570;9.964;2022-08-11T06:59:35;21.10;99.90
44817;DHT22;30529;53.570;9.964;2022-08-11T07:02:22;21.10;99.90
44817;DHT22;30529;53.570;9.964;2022-08-11T07:05:00;21.10;99.90
44817;DHT22;30529;53.570;9.964;2022-08-11T07:13:22;21.20;99.90
44817;DHT22;30529;53.570;9.964;2022-08-11T07:16:08;21.20;99.90
44817;DHT22;30529;53.570;9.964;2022-08-11T07:18:36;21.30;99.90
44817;DHT22;30529;53.570;9.964;2022-08-11T07:21:27;21.30;99.90
44817;DHT22;30529;53.570;9.964;2022-08-11T07:24:19;21.30;99.90
44817;DHT22;30529;53.570;9.964;2022-08-11T07:27:08;21.30;99.90
44817;DHT22;30529;53.570;9.964;2022-08-11T07:29:56;21.40;99.90
44817;DHT22;30529;53.570;9.964;2022-08-11T07:32:31;21.30;99.90
44817;DHT22;30529;53.570;9.964;2022-08-11T07:35:16;21.40;99.90
44817;DHT22;30529;53.570;9.964;2022-08-11T07:37:52;21.40;99.90
44817;DHT22;30529;53.570;9.964;2022-08-11T07:40:25;21.40;99.90
44817;DHT22;30529;53.570;9.964;2022-08-11T07:42:52;21.40;99.90
44817;DHT22;30529;53.570;9.964;2022-08-11T07:45:22;21.40;99.90
44817;DHT22;30529;53.570;9.964;2022-08-11T07:48:09;21.40;99.90
44817;DHT22;30529;53.570;9.964;2022-08-11T07:50:54;21.50;99.90
44817;DHT22;30529;53.570;9.964;2022-08-11T07:53:40;21.50;99.90
44817;DHT22;30529;53.570;9.964;2022-08-11T07:56:07;21.50;99.90
44817;DHT22;30529;53.570;9.964;2022-08-11T07:58:35;21.50;99.90
44817;DHT22;30529;53.570;9.964;2022-08-11T08:01:23;21.60;99.90
44817;DHT22;30529;53.570;9.964;2022-08-11T08:04:11;21.60;99.90
44817;DHT22;30529;53.570;9.964;2022-08-11T08:06:57;21.70;99.90
44817;DHT22;30529;53.570;9.964;2022-08-11T08:09:44;21.70;99.90
44817;DHT22;30529;53.570;9.964;2022-08-11T08:12:29;21.70;99.90
44817;DHT22;30529;53.570;9.964;2022-08-11T08:15:16;21.70;99.90
44817;DHT22;30529;53.570;9.964;2022-08-11T08:18:02;21.80;99.90
44817;DHT22;30529;53.570;9.964;2022-08-11T08:20:44;21.80;99.90
44817;DHT22;30529;53.570;9.964;2022-08-11T08:23:10;21.90;99.90
44817;DHT22;30529;53.570;9.964;2022-08-11T08:25:38;22.00;99.90
44817;DHT22;30529;53.570;9.964;2022-08-11T08:28:07;22.10;99.90
44817;DHT22;30529;53.570;9.964;2022-08-11T08:30:36;22.10;99.90
44817;DHT22;30529;53.570;9.964;2022-08-11T08:33:26;22.10;99.90
44817;DHT22;30529;53.570;9.964;2022-08-11T08:36:03;22.30;99.90
44817;DHT22;30529;53.570;9.964;2022-08-11T08:38:56;22.40;99.90
44817;DHT22;30529;53.570;9.964;2022-08-11T08:41:34;22.40;99.90
44817;DHT22;30529;53.570;9.964;2022-08-11T08:44:07;22.40;99.90
44817;DHT22;30529;53.570;9.964;2022-08-11T08:46:43;22.40;99.90
44817;DHT22;30529;53.570;9.964;2022-08-11T08:49:17;22.50;99.90
44817;DHT22;30529;53.570;9.964;2022-08-11T08:51:48;22.50;99.90
44817;DHT22;30529;53.570;9.964;2022-08-11T08:54:18;22.60;99.90
44817;DHT22;30529;53.570;9.964;2022-08-11T08:56:46;22.60;99.90
44817;DHT22;30529;53.570;9.964;2022-08-11T08:59:14;22.60;99.90
44817;DHT22;30529;53.570;9.964;2022-08-11T09:01:47;22.60;99.90
44817;DHT22;30529;53.570;9.964;2022-08-11T09:04:14;22.70;99.90
44817;DHT22;30529;53.570;9.964;2022-08-11T09:06:41;22.80;99.90
44817;DHT22;30529;53.570;9.964;2022-08-11T09:09:10;22.90;99.90
44817;DHT22;30529;53.570;9.964;2022-08-11T09:11:38;23.00;99.90
44817;DHT22;30529;53.570;9.964;2022-08-11T09:14:25;23.00;99.90
44817;DHT22;30529;53.570;9.964;2022-08-11T09:17:13;23.20;99.90
44817;DHT22;30529;53.570;9.964;2022-08-11T09:19:39;23.10;99.90
44817;DHT22;30529;53.570;9.964;2022-08-11T09:22:06;23.10;99.90
44817;DHT22;30529;53.570;9.964;2022-08-11T09:24:51;23.10;99.90
44817;DHT22;30529;53.570;9.964;2022-08-11T09:27:38;23.20;99.90
44817;DHT22;30529;53.570;9.964;2022-08-11T09:30:06;23.20;99.90
44817;DHT22;30529;53.570;9.964;2022-08-11T09:32:33;23.20;99.90
44817;DHT22;30529;53.570;9.964;2022-08-11T09:35:01;23.20;99.90
44817;DHT22;30529;53.570;9.964;2022-08-11T09:37:28;23.30;99.90
44817;DHT22;30529;53.570;9.964;2022-08-11T09:40:15;23.30;99.90
44817;DHT22;30529;53.570;9.964;2022-08-11T09:42:58;23.30;99.90
44817;DHT22;30529;53.570;9.964;2022-08-11T09:45:46;23.30;99.90
44817;DHT22;30529;53.570;9.964;2022-08-11T09:48:28;23.50;99.90
44817;DHT22;30529;53.570;9.964;2022-08-11T09:50:58;23.50;99.90
44817;DHT22;30529;53.570;9.964;2022-08-11T09:53:26;23.50;99.90
44817;DHT22;30529;53.570;9.964;2022-08-11T09:55:53;23.50;99.90
44817;DHT22;30529;53.570;9.964;2022-08-11T09:58:20;23.50;99.90
44817;DHT22;30529;53.570;9.964;2022-08-11T10:00:50;23.50;99.90
44817;DHT22;30529;53.570;9.964;2022-08-11T10:03:22;23.60;99.90
44817;DHT22;30529;53.570;9.964;2022-08-11T10:05:53;23.60;99.90
44817;DHT22;30529;53.570;9.964;2022-08-11T10:08:43;23.60;99.90
44817;DHT22;30529;53.570;9.964;2022-08-11T10:11:13;23.70;99.90
44817;DHT22;30529;53.570;9.964;2022-08-11T10:13:45;23.90;99.90
44817;DHT22;30529;53.570;9.964;2022-08-11T10:16:34;23.90;99.90
44817;DHT22;30529;53.570;9.964;2022-08-11T10:19:03;23.90;99.90
44817;DHT22;30529;53.570;9.964;2022-08-11T10:21:45;23.90;99.90
44817;DHT22;30529;53.570;9.964;2022-08-11T10:24:33;24.00;99.90
44817;DHT22;30529;53.570;9.964;2022-08-11T10:27:18;24.10;99.90
44817;DHT22;30529;53.570;9.964;2022-08-11T10:29:44;24.00;99.90
44817;DHT22;30529;53.570;9.964;2022-08-11T10:32:29;24.00;99.90
44817;DHT22;30529;53.570;9.964;2022-08-11T10:35:15;24.10;99.90
44817;DHT22;30529;53.570;9.964;2022-08-11T10:37:43;24.20;99.90
44817;DHT22;30529;53.570;9.964;2022-08-11T10:40:14;24.20;99.90
44817;DHT22;30529;53.570;9.964;2022-08-11T10:42:41;24.20;99.90
44817;DHT22;30529;53.570;9.964;2022-08-11T10:45:32;24.20;99.90
44817;DHT22;30529;53.570;9.964;2022-08-11T10:48:20;24.30;99.90
44817;DHT22;30529;53.570;9.964;2022-08-11T10:50:48;24.30;99.90
44817;DHT22;30529;53.570;9.964;2022-08-11T10:53:52;24.30;99.90
44817;DHT22;30529;53.570;9.964;2022-08-11T10:56:38;24.20;99.90
44817;DHT22;30529;53.570;9.964;2022-08-11T10:59:26;24.20;99.90
44817;DHT22;30529;53.570;9.964;2022-08-11T11:01:53;24.20;99.90
44817;DHT22;30529;53.570;9.964;2022-08-11T11:04:37;24.30;99.90
44817;DHT22;30529;53.570;9.964;2022-08-11T11:07:14;24.30;99.90
44817;DHT22;30529;53.570;9.964;2022-08-11T11:09:56;24.30;99.90
44817;DHT22;30529;53.570;9.964;2022-08-11T11:12:39;24.30;99.90
44817;DHT22;30529;53.570;9.964;2022-08-11T11:15:27;24.40;99.90
44817;DHT22;30529;53.570;9.964;2022-08-11T11:18:33;24.50;99.90
44817;DHT22;30529;53.570;9.964;2022-08-11T11:21:05;24.60;99.90
44817;DHT22;30529;53.570;9.964;2022-08-11T11:23:55;24.70;99.90
44817;DHT22;30529;53.570;9.964;2022-08-11T11:29:40;24.70;99.90
44817;DHT22;30529;53.570;9.964;2022-08-11T11:37:24;24.60;99.90
44817;DHT22;30529;53.570;9.964;2022-08-11T11:39:51;24.80;99.90
44817;DHT22;30529;53.570;9.964;2022-08-11T11:42:20;24.90;99.90
44817;DHT22;30529;53.570;9.964;2022-08-11T11:44:46;24.80;99.90
44817;DHT22;30529;53.570;9.964;2022-08-11T11:47:13;24.80;99.90
44817;DHT22;30529;53.570;9.964;2022-08-11T11:49:41;24.70;99.90
44817;DHT22;30529;53.570;9.964;2022-08-11T11:52:13;24.80;99.90
44817;DHT22;30529;53.570;9.964;2022-08-11T11:54:41;24.90;99.90
44817;DHT22;30529;53.570;9.964;2022-08-11T11:57:07;24.90;99.90
44817;DHT22;30529;53.570;9.964;2022-08-11T11:59:52;24.90;99.90
44817;DHT22;30529;53.570;9.964;2022-08-11T12:02:39;25.00;99.90
44817;DHT22;30529;53.570;9.964;2022-08-11T12:05:10;25.10;99.90
44817;DHT22;30529;53.570;9.964;2022-08-11T12:07:40;25.10;99.90
44817;DHT22;30529;53.570;9.964;2022-08-11T12:10:25;25.00;99.90
44817;DHT22;30529;53.570;9.964;2022-08-11T12:12:51;24.90;99.90
44817;DHT22;30529;53.570;9.964;2022-08-11T12:15:37;25.00;99.90
44817;DHT22;30529;53.570;9.964;2022-08-11T12:18:03;25.00;99.90
44817;DHT22;30529;53.570;9.964;2022-08-11T12:20:32;25.10;99.90
44817;DHT22;30529;53.570;9.964;2022-08-11T12:22:59;25.10;99.90
44817;DHT22;30529;53.570;9.964;2022-08-11T12:25:44;25.10;99.90
44817;DHT22;30529;53.570;9.964;2022-08-11T12:28:29;25.10;99.90
44817;DHT22;30529;53.570;9.964;2022-08-11T12:30:56;25.10;99.90
44817;DHT22;30529;53.570;9.964;2022-08-11T12:33:22;25.10;99.90
44817;DHT22;30529;53.570;9.964;2022-08-11T12:35:56;25.20;99.90
44817;DHT22;30529;53.570;9.964;2022-08-11T12:38:28;25.30;99.90
44817;DHT22;30529;53.570;9.964;2022-08-11T12:40:55;25.40;99.90
44817;DHT22;30529;53.570;9.964;2022-08-11T12:43:44;25.50;99.90
44817;DHT22;30529;53.570;9.964;2022-08-11T12:46:34;25.50;99.90
44817;DHT22;30529;53.570;9.964;2022-08-11T12:49:21;25.50;99.90
44817;DHT22;30529;53.570;9.964;2022-08-11T12:52:10;25.60;99.90
44817;DHT22;30529;53.570;9.964;2022-08-11T12:54:44;25.70;99.90
44817;DHT22;30529;53.570;9.964;2022-08-11T12:57:14;25.80;99.90
44817;DHT22;30529;53.570;9.964;2022-08-11T13:00:01;25.70;99.90
44817;DHT22;30529;53.570;9.964;2022-08-11T13:02:47;25.80;99.90
44817;DHT22;30529;53.570;9.964;2022-08-11T13:05:33;25.70;99.90
44817;DHT22;30529;53.570;9.964;2022-08-11T13:08:01;25.70;99.90
44817;DHT22;30529;53.570;9.964;2022-08-11T13:10:28;25.70;99.90
44817;DHT22;30529;53.570;9.964;2022-08-11T13:13:16;25.90;99.90
44817;DHT22;30529;53.570;9.964;2022-08-11T13:15:46;25.80;99.90
44817;DHT22;30529;53.570;9.964;2022-08-11T13:18:15;25.70;99.90
44817;DHT22;30529;53.570;9.964;2022-08-11T13:20:43;25.60;99.90
44817;DHT22;30529;53.570;9.964;2022-08-11T13:23:11;25.60;99.90
44817;DHT22;30529;53.570;9.964;2022-08-11T13:25:39;25.70;99.90
44817;DHT22;30529;53.570;9.964;2022-08-11T13:28:05;25.70;99.90
44817;DHT22;30529;53.570;9.964;2022-08-11T13:30:32;25.90;99.90
44817;DHT22;30529;53.570;9.964;2022-08-11T13:33:18;26.00;99.90
44817;DHT22;30529;53.570;9.964;2022-08-11T13:35:46;25.90;99.90
44817;DHT22;30529;53.570;9.964;2022-08-11T13:38:15;26.00;99.90
44817;DHT22;30529;53.570;9.964;2022-08-11T13:40:42;26.00;99.90
44817;DHT22;30529;53.570;9.964;2022-08-11T13:43:10;26.00;99.90
44817;DHT22;30529;53.570;9.964;2022-08-11T13:45:36;26.10;99.90
44817;DHT22;30529;53.570;9.964;2022-08-11T13:48:07;26.20;99.90
44817;DHT22;30529;53.570;9.964;2022-08-11T13:50:34;26.10;99.90
44817;DHT22;30529;53.570;9.964;2022-08-11T13:53:21;26.00;99.90
44817;DHT22;30529;53.570;9.964;2022-08-11T13:55:48;25.90;99.90
44817;DHT22;30529;53.570;9.964;2022-08-11T13:58:15;25.90;99.90
44817;DHT22;30529;53.570;9.964;2022-08-11T14:00:49;25.80;99.90
44817;DHT22;30529;53.570;9.964;2022-08-11T14:03:24;25.80;99.90
44817;DHT22;30529;53.570;9.964;2022-08-11T14:05:52;25.80;99.90
44817;DHT22;30529;53.570;9.964;2022-08-11T14:08:26;25.90;99.90
44817;DHT22;30529;53.570;9.964;2022-08-11T14:10:54;26.10;99.90
44817;DHT22;30529;53.570;9.964;2022-08-11T14:13:44;26.30;99.90
44817;DHT22;30529;53.570;9.964;2022-08-11T14:16:30;26.50;99.90
44817;DHT22;30529;53.570;9.964;2022-08-11T14:19:00;26.60;99.90
44817;DHT22;30529;53.570;9.964;2022-08-11T14:21:29;26.70;99.90
44817;DHT22;30529;53.570;9.964;2022-08-11T14:24:17;26.90;99.90
44817;DHT22;30529;53.570;9.964;2022-08-11T14:26:46;26.70;99.90
44817;DHT22;30529;53.570;9.964;2022-08-11T14:29:31;26.60;99.90
44817;DHT22;30529;53.570;9.964;2022-08-11T14:32:01;26.50;99.90
44817;DHT22;30529;53.570;9.964;2022-08-11T14:34:30;26.60;99.90
44817;DHT22;30529;53.570;9.964;2022-08-11T14:37:22;26.70;99.90
44817;DHT22;30529;53.570;9.964;2022-08-11T14:39:57;26.60;99.90
44817;DHT22;30529;53.570;9.964;2022-08-11T14:42:24;26.60;99.90
44817;DHT22;30529;53.570;9.964;2022-08-11T14:45:11;26.50;99.90
44817;DHT22;30529;53.570;9.964;2022-08-11T14:48:00;26.50;99.90
44817;DHT22;30529;53.570;9.964;2022-08-11T14:50:29;26.90;99.90
44817;DHT22;30529;53.570;9.964;2022-08-11T14:52:58;27.00;99.90
44817;DHT22;30529;53.570;9.964;2022-08-11T14:55:30;27.00;99.90
44817;DHT22;30529;53.570;9.964;2022-08-11T14:58:20;27.00;99.90
44817;DHT22;30529;53.570;9.964;2022-08-11T15:00:52;26.90;99.90
44817;DHT22;30529;53.570;9.964;2022-08-11T15:03:20;26.70;99.90
44817;DHT22;30529;53.570;9.964;2022-08-11T15:05:51;26.60;99.90
44817;DHT22;30529;53.570;9.964;2022-08-11T15:08:19;26.60;99.90
44817;DHT22;30529;53.570;9.964;2022-08-11T15:11:08;26.60;99.90
44817;DHT22;30529;53.570;9.964;2022-08-11T15:13:55;26.80;99.90
44817;DHT22;30529;53.570;9.964;2022-08-11T15:16:24;27.00;99.90
44817;DHT22;30529;53.570;9.964;2022-08-11T15:19:11;27.00;99.90
44817;DHT22;30529;53.570;9.964;2022-08-11T15:21:37;27.00;99.90
44817;DHT22;30529;53.570;9.964;2022-08-11T15:24:22;26.90;99.90
44817;DHT22;30529;53.570;9.964;2022-08-11T15:26:49;26.80;99.90
44817;DHT22;30529;53.570;9.964;2022-08-11T15:29:37;26.70;99.90
44817;DHT22;30529;53.570;9.964;2022-08-11T15:32:23;26.70;99.90
44817;DHT22;30529;53.570;9.964;2022-08-11T15:35:09;26.80;99.90
44817;DHT22;30529;53.570;9.964;2022-08-11T15:37:57;26.90;99.90
44817;DHT22;30529;53.570;9.964;2022-08-11T15:40:29;26.90;99.90
44817;DHT22;30529;53.570;9.964;2022-08-11T15:43:19;27.00;99.90
44817;DHT22;30529;53.570;9.964;2022-08-11T15:46:16;26.90;99.90
44817;DHT22;30529;53.570;9.964;2022-08-11T15:48:47;26.80;99.90
44817;DHT22;30529;53.570;9.964;2022-08-11T15:51:28;26.70;99.90
44817;DHT22;30529;53.570;9.964;2022-08-11T15:53:57;26.70;99.90
44817;DHT22;30529;53.570;9.964;2022-08-11T15:56:27;26.60;99.90
44817;DHT22;30529;53.570;9.964;2022-08-11T15:58:56;26.70;99.90
44817;DHT22;30529;53.570;9.964;2022-08-11T16:01:43;26.70;99.90
44817;DHT22;30529;53.570;9.964;2022-08-11T16:04:30;26.60;99.90
44817;DHT22;30529;53.570;9.964;2022-08-11T16:07:04;26.70;99.90
44817;DHT22;30529;53.570;9.964;2022-08-11T16:09:41;26.70;99.90
44817;DHT22;30529;53.570;9.964;2022-08-11T16:12:21;26.70;99.90
44817;DHT22;30529;53.570;9.964;2022-08-11T16:14:55;26.70;99.90
44817;DHT22;30529;53.570;9.964;2022-08-11T16:17:43;26.70;99.90
44817;DHT22;30529;53.570;9.964;2022-08-11T16:20:12;26.60;99.90
44817;DHT22;30529;53.570;9.964;2022-08-11T16:22:39;26.50;99.90
44817;DHT22;30529;53.570;9.964;2022-08-11T16:25:13;26.40;99.90
44817;DHT22;30529;53.570;9.964;2022-08-11T16:27:44;26.50;99.90
44817;DHT22;30529;53.570;9.964;2022-08-11T16:30:11;26.50;99.90
44817;DHT22;30529;53.570;9.964;2022-08-11T16:32:43;26.50;99.90
44817;DHT22;30529;53.570;9.964;2022-08-11T16:35:16;26.50;99.90
44817;DHT22;30529;53.570;9.964;2022-08-11T16:38:03;26.50;99.90
44817;DHT22;30529;53.570;9.964;2022-08-11T16:40:51;26.50;99.90
44817;DHT22;30529;53.570;9.964;2022-08-11T16:43:18;26.50;99.90
44817;DHT22;30529;53.570;9.964;2022-08-11T16:46:06;26.50;99.90
44817;DHT22;30529;53.570;9.964;2022-08-11T16:48:52;26.50;99.90
44817;DHT22;30529;53.570;9.964;2022-08-11T16:51:20;26.50;99.90
44817;DHT22;30529;53.570;9.964;2022-08-11T16:53:48;26.50;99.90
44817;DHT22;30529;53.570;9.964;2022-08-11T16:56:18;26.50;99.90
44817;DHT22;30529;53.570;9.964;2022-08-11T16:58:51;26.40;99.90
44817;DHT22;30529;53.570;9.964;2022-08-11T17:01:37;26.40;99.90
44817;DHT22;30529;53.570;9.964;2022-08-11T17:06:58;26.40;99.90
44817;DHT22;30529;53.570;9.964;2022-08-11T17:10:02;26.30;99.90
44817;DHT22;30529;53.570;9.964;2022-08-11T17:12:49;26.30;99.90
44817;DHT22;30529;53.570;9.964;2022-08-11T17:15:43;26.20;99.90
44817;DHT22;30529;53.570;9.964;2022-08-11T17:18:31;26.20;99.90
44817;DHT22;30529;53.570;9.964;2022-08-11T17:21:19;26.10;99.90
44817;DHT22;30529;53.570;9.964;2022-08-11T17:23:49;26.10;99.90
44817;DHT22;30529;53.570;9.964;2022-08-11T17:26:34;26.10;99.90
44817;DHT22;30529;53.570;9.964;2022-08-11T17:31:49;26.00;99.90
44817;DHT22;30529;53.570;9.964;2022-08-11T17:34:34;25.90;99.90
44817;DHT22;30529;53.570;9.964;2022-08-11T17:37:20;25.90;99.90
44817;DHT22;30529;53.570;9.964;2022-08-11T17:39:48;25.80;99.90
44817;DHT22;30529;53.570;9.964;2022-08-11T17:42:15;25.70;99.90
44817;DHT22;30529;53.570;9.964;2022-08-11T17:45:00;25.70;99.90
44817;DHT22;30529;53.570;9.964;2022-08-11T17:47:47;25.60;99.90
44817;DHT22;30529;53.570;9.964;2022-08-11T17:50:34;25.60;99.90
44817;DHT22;30529;53.570;9.964;2022-08-11T17:53:02;25.50;99.90
44817;DHT22;30529;53.570;9.964;2022-08-11T17:55:48;25.50;99.90
44817;DHT22;30529;53.570;9.964;2022-08-11T17:58:34;25.40;99.90
44817;DHT22;30529;53.570;9.964;2022-08-11T18:01:20;25.40;99.90
44817;DHT22;30529;53.570;9.964;2022-08-11T18:03:50;25.30;99.90
44817;DHT22;30529;53.570;9.964;2022-08-11T18:06:17;25.30;99.90
44817;DHT22;30529;53.570;9.964;2022-08-11T18:08:45;25.30;99.90
44817;DHT22;30529;53.570;9.964;2022-08-11T18:11:32;25.20;99.90
44817;DHT22;30529;53.570;9.964;2022-08-11T18:14:19;25.10;99.90
44817;DHT22;30529;53.570;9.964;2022-08-11T18:17:04;25.10;99.90
44817;DHT22;30529;53.570;9.964;2022-08-11T18:19:49;25.10;99.90
44817;DHT22;30529;53.570;9.964;2022-08-11T18:22:40;25.00;99.90
44817;DHT22;30529;53.570;9.964;2022-08-11T18:25:31;25.00;99.90
44817;DHT22;30529;53.570;9.964;2022-08-11T18:28:23;24.90;99.90
44817;DHT22;30529;53.570;9.964;2022-08-11T18:31:12;24.90;99.90
44817;DHT22;30529;53.570;9.964;2022-08-11T18:34:06;24.80;99.90
44817;DHT22;30529;53.570;9.964;2022-08-11T18:37:05;24.80;99.90
44817;DHT22;30529;53.570;9.964;2022-08-11T18:40:04;24.70;99.90
44817;DHT22;30529;53.570;9.964;2022-08-11T18:42:52;24.70;99.90
44817;DHT22;30529;53.570;9.964;2022-08-11T18:45:40;24.60;99.90
44817;DHT22;30529;53.570;9.964;2022-08-11T18:48:29;24.50;99.90
44817;DHT22;30529;53.570;9.964;2022-08-11T18:51:15;24.40;99.90
44817;DHT22;30529;53.570;9.964;2022-08-11T18:54:05;24.30;99.90
44817;DHT22;30529;53.570;9.964;2022-08-11T18:56:55;24.20;99.90
44817;DHT22;30529;53.570;9.964;2022-08-11T18:59:42;24.20;99.90
44817;DHT22;30529;53.570;9.964;2022-08-11T19:02:29;24.10;99.90
44817;DHT22;30529;53.570;9.964;2022-08-11T19:05:17;24.00;99.90
44817;DHT22;30529;53.570;9.964;2022-08-11T19:08:02;24.00;99.90
44817;DHT22;30529;53.570;9.964;2022-08-11T19:10:49;23.90;99.90
44817;DHT22;30529;53.570;9.964;2022-08-11T19:13:34;23.80;99.90
44817;DHT22;30529;53.570;9.964;2022-08-11T19:16:24;23.80;99.90
44817;DHT22;30529;53.570;9.964;2022-08-11T19:19:12;23.70;99.90
44817;DHT22;30529;53.570;9.964;2022-08-11T19:21:59;23.60;99.90
44817;DHT22;30529;53.570;9.964;2022-08-11T19:24:47;23.60;99.90
44817;DHT22;30529;53.570;9.964;2022-08-11T19:27:32;23.50;99.90
44817;DHT22;30529;53.570;9.964;2022-08-11T19:30:17;23.40;99.90
44817;DHT22;30529;53.570;9.964;2022-08-11T19:33:03;23.30;99.90
44817;DHT22;30529;53.570;9.964;2022-08-11T19:35:48;23.30;99.90
44817;DHT22;30529;53.570;9.964;2022-08-11T19:38:35;23.20;99.90
44817;DHT22;30529;53.570;9.964;2022-08-11T19:41:21;23.20;99.90
44817;DHT22;30529;53.570;9.964;2022-08-11T19:44:08;23.10;99.90
44817;DHT22;30529;53.570;9.964;2022-08-11T19:46:54;23.00;99.90
44817;DHT22;30529;53.570;9.964;2022-08-11T19:49:41;22.90;99.90
44817;DHT22;30529;53.570;9.964;2022-08-11T19:52:28;22.90;99.90
44817;DHT22;30529;53.570;9.964;2022-08-11T19:55:14;22.80;99.90